sensor_id;sensor_type;location;lat;lon;timestamp;temperature;humidity
58993;DHT22;44782;0.000;0.000;2023-05-25T00:02:03;19.00;53.50
58993;DHT22;44782;0.000;0.000;2023-05-25T00:04:19;19.00;53.50
58993;DHT22;44782;0.000;0.000;2023-05-25T00:06:35;19.00;53.50
58993;DHT22;44782;0.000;0.000;2023-05-25T00:08:56;19.00;53.50
58993;DHT22;44782;0.000;0.000;2023-05-25T00:11:11;19.00;53.50
58993;DHT22;44782;0.000;0.000;2023-05-25T00:13:27;18.90;53.50
58993;DHT22;44782;0.000;0.000;2023-05-25T00:15:43;19.00;53.50
58993;DHT22;44782;0.000;0.000;2023-05-25T00:17:59;18.90;53.40
58993;DHT22;44782;0.000;0.000;2023-05-25T00:20:15;19.00;53.50
58993;DHT22;44782;0.000;0.000;2023-05-25T00:22:30;19.00;53.50
58993;DHT22;44782;0.000;0.000;2023-05-25T00:24:48;18.90;53.50
58993;DHT22;44782;0.000;0.000;2023-05-25T00:27:04;19.00;53.50
58993;DHT22;44782;0.000;0.000;2023-05-25T00:29:21;19.00;53.50
58993;DHT22;44782;0.000;0.000;2023-05-25T00:31:37;19.00;53.50
58993;DHT22;44782;0.000;0.000;2023-05-25T00:33:53;19.00;53.40
58993;DHT22;44782;0.000;0.000;2023-05-25T00:36:09;19.00;53.50
58993;DHT22;44782;0.000;0.000;2023-05-25T00:38:24;18.90;53.40
58993;DHT22;44782;0.000;0.000;2023-05-25T00:40:40;18.90;53.40
58993;DHT22;44782;0.000;0.000;2023-05-25T00:42:56;18.90;53.40
58993;DHT22;44782;0.000;0.000;2023-05-25T00:45:13;18.90;53.40
58993;DHT22;44782;0.000;0.000;2023-05-25T00:47:29;18.90;53.40
58993;DHT22;44782;0.000;0.000;2023-05-25T00:49:46;18.90;53.40
58993;DHT22;44782;0.000;0.000;2023-05-25T00:52:01;18.90;53.40
58993;DHT22;44782;0.000;0.000;2023-05-25T00:54:18;18.90;53.40
58993;DHT22;44782;0.000;0.000;2023-05-25T00:56:37;18.90;53.40
58993;DHT22;44782;0.000;0.000;2023-05-25T00:58:56;18.90;53.30
58993;DHT22;44782;0.000;0.000;2023-05-25T01:01:15;18.90;53.40
58993;DHT22;44782;0.000;0.000;2023-05-25T01:03:34;18.90;53.40
58993;DHT22;44782;0.000;0.000;2023-05-25T01:05:53;18.90;53.40
58993;DHT22;44782;0.000;0.000;2023-05-25T01:08:10;18.90;53.40
58993;DHT22;44782;0.000;0.000;2023-05-25T01:10:30;18.90;53.40
58993;DHT22;44782;0.000;0.000;2023-05-25T01:12:49;18.90;53.40
58993;DHT22;44782;0.000;0.000;2023-05-25T01:15:06;18.90;53.40
58993;DHT22;44782;0.000;0.000;2023-05-25T01:17:21;18.80;53.30
58993;DHT22;44782;0.000;0.000;2023-05-25T01:19:37;18.80;53.30
58993;DHT22;44782;0.000;0.000;2023-05-25T01:22:00;18.80;53.40
58993;DHT22;44782;0.000;0.000;2023-05-25T01:27:02;18.90;53.20
58993;DHT22;44782;0.000;0.000;2023-05-25T01:29:18;18.80;53.40
58993;DHT22;44782;0.000;0.000;2023-05-25T01:31:36;18.80;53.40
58993;DHT22;44782;0.000;0.000;2023-05-25T01:33:53;18.80;53.40
58993;DHT22;44782;0.000;0.000;2023-05-25T01:36:10;18.80;53.40
58993;DHT22;44782;0.000;0.000;2023-05-25T01:38:26;18.80;53.40
58993;DHT22;44782;0.000;0.000;2023-05-25T01:40:41;18.80;53.30
58993;DHT22;44782;0.000;0.000;2023-05-25T01:42:57;18.80;53.30
58993;DHT22;44782;0.000;0.000;2023-05-25T01:45:13;18.80;53.30
58993;DHT22;44782;0.000;0.000;2023-05-25T01:50:17;18.80;53.20
58993;DHT22;44782;0.000;0.000;2023-05-25T01:52:46;18.80;53.20
58993;DHT22;44782;0.000;0.000;2023-05-25T01:55:11;18.80;53.30
58993;DHT22;44782;0.000;0.000;2023-05-25T01:57:28;18.70;53.20
58993;DHT22;44782;0.000;0.000;2023-05-25T01:59:46;18.80;54.00
58993;DHT22;44782;0.000;0.000;2023-05-25T02:02:02;18.70;53.30
58993;DHT22;44782;0.000;0.000;2023-05-25T02:04:18;18.80;53.30
58993;DHT22;44782;0.000;0.000;2023-05-25T02:06:36;18.80;53.30
58993;DHT22;44782;0.000;0.000;2023-05-25T02:08:52;18.70;53.30
58993;DHT22;44782;0.000;0.000;2023-05-25T02:11:08;18.70;53.30
58993;DHT22;44782;0.000;0.000;2023-05-25T02:13:23;18.70;53.20
58993;DHT22;44782;0.000;0.000;2023-05-25T02:15:39;18.70;53.30
58993;DHT22;44782;0.000;0.000;2023-05-25T02:17:55;18.70;53.30
58993;DHT22;44782;0.000;0.000;2023-05-25T02:20:12;18.70;53.30
58993;DHT22;44782;0.000;0.000;2023-05-25T02:22:28;18.70;53.30
58993;DHT22;44782;0.000;0.000;2023-05-25T02:24:43;18.70;53.30
58993;DHT22;44782;0.000;0.000;2023-05-25T02:27:00;18.70;53.30
58993;DHT22;44782;0.000;0.000;2023-05-25T02:29:16;18.70;53.30
58993;DHT22;44782;0.000;0.000;2023-05-25T02:31:32;18.70;53.30
58993;DHT22;44782;0.000;0.000;2023-05-25T02:33:48;18.70;53.30
58993;DHT22;44782;0.000;0.000;2023-05-25T02:36:04;18.70;53.30
58993;DHT22;44782;0.000;0.000;2023-05-25T02:38:19;18.70;53.30
58993;DHT22;44782;0.000;0.000;2023-05-25T02:40:35;18.70;53.30
58993;DHT22;44782;0.000;0.000;2023-05-25T02:42:51;18.70;53.30
58993;DHT22;44782;0.000;0.000;2023-05-25T02:45:08;18.70;53.30
58993;DHT22;44782;0.000;0.000;2023-05-25T02:47:27;18.60;53.30
58993;DHT22;44782;0.000;0.000;2023-05-25T02:49:46;18.70;53.30
58993;DHT22;44782;0.000;0.000;2023-05-25T02:52:02;18.70;53.30
58993;DHT22;44782;0.000;0.000;2023-05-25T02:54:17;18.70;53.30
58993;DHT22;44782;0.000;0.000;2023-05-25T02:56:33;18.70;53.30
58993;DHT22;44782;0.000;0.000;2023-05-25T02:58:49;18.60;53.30
58993;DHT22;44782;0.000;0.000;2023-05-25T03:01:05;18.60;53.30
58993;DHT22;44782;0.000;0.000;2023-05-25T03:03:25;18.60;53.30
58993;DHT22;44782;0.000;0.000;2023-05-25T03:05:41;18.60;53.30
58993;DHT22;44782;0.000;0.000;2023-05-25T03:07:57;18.60;53.30
58993;DHT22;44782;0.000;0.000;2023-05-25T03:10:12;18.60;53.30
58993;DHT22;44782;0.000;0.000;2023-05-25T03:12:28;18.60;53.30
58993;DHT22;44782;0.000;0.000;2023-05-25T03:14:44;18.60;53.40
58993;DHT22;44782;0.000;0.000;2023-05-25T03:17:00;18.60;53.30
58993;DHT22;44782;0.000;0.000;2023-05-25T03:19:15;18.60;53.40
58993;DHT22;44782;0.000;0.000;2023-05-25T03:21:33;18.60;53.30
58993;DHT22;44782;0.000;0.000;2023-05-25T03:23:49;18.60;53.30
58993;DHT22;44782;0.000;0.000;2023-05-25T03:26:04;18.60;53.40
58993;DHT22;44782;0.000;0.000;2023-05-25T03:28:20;18.60;53.30
58993;DHT22;44782;0.000;0.000;2023-05-25T03:30:36;18.60;53.40
58993;DHT22;44782;0.000;0.000;2023-05-25T03:32:52;18.60;53.30
58993;DHT22;44782;0.000;0.000;2023-05-25T03:35:08;18.60;53.30
58993;DHT22;44782;0.000;0.000;2023-05-25T03:37:23;18.60;53.40
58993;DHT22;44782;0.000;0.000;2023-05-25T03:39:39;18.60;53.30
58993;DHT22;44782;0.000;0.000;2023-05-25T03:41:55;18.60;53.40
58993;DHT22;44782;0.000;0.000;2023-05-25T03:44:12;18.50;53.30
58993;DHT22;44782;0.000;0.000;2023-05-25T03:46:28;18.50;53.30
58993;DHT22;44782;0.000;0.000;2023-05-25T03:48:44;18.50;53.30
58993;DHT22;44782;0.000;0.000;2023-05-25T03:50:59;18.50;53.30
58993;DHT22;44782;0.000;0.000;2023-05-25T03:53:15;18.50;53.30
58993;DHT22;44782;0.000;0.000;2023-05-25T03:55:31;18.50;53.30
58993;DHT22;44782;0.000;0.000;2023-05-25T03:57:46;18.50;53.30
58993;DHT22;44782;0.000;0.000;2023-05-25T04:00:02;18.50;53.30
58993;DHT22;44782;0.000;0.000;2023-05-25T04:02:19;18.50;53.60
58993;DHT22;44782;0.000;0.000;2023-05-25T04:04:35;18.50;53.30
58993;DHT22;44782;0.000;0.000;2023-05-25T04:06:55;18.50;53.30
58993;DHT22;44782;0.000;0.000;2023-05-25T04:09:11;18.50;53.30
58993;DHT22;44782;0.000;0.000;2023-05-25T04:11:27;18.50;53.30
58993;DHT22;44782;0.000;0.000;2023-05-25T04:13:43;18.50;53.30
58993;DHT22;44782;0.000;0.000;2023-05-25T04:15:59;18.50;53.40
58993;DHT22;44782;0.000;0.000;2023-05-25T04:18:15;18.50;53.30
58993;DHT22;44782;0.000;0.000;2023-05-25T04:20:30;18.50;53.30
58993;DHT22;44782;0.000;0.000;2023-05-25T04:22:46;18.50;53.30
58993;DHT22;44782;0.000;0.000;2023-05-25T04:25:02;18.50;53.30
58993;DHT22;44782;0.000;0.000;2023-05-25T04:27:18;18.50;53.40
58993;DHT22;44782;0.000;0.000;2023-05-25T04:29:34;18.50;53.30
58993;DHT22;44782;0.000;0.000;2023-05-25T04:31:51;18.50;53.30
58993;DHT22;44782;0.000;0.000;2023-05-25T04:34:08;18.50;53.40
58993;DHT22;44782;0.000;0.000;2023-05-25T04:36:24;18.50;53.40
58993;DHT22;44782;0.000;0.000;2023-05-25T04:38:40;18.50;53.40
58993;DHT22;44782;0.000;0.000;2023-05-25T04:40:57;18.40;53.30
58993;DHT22;44782;0.000;0.000;2023-05-25T04:43:13;18.50;53.40
58993;DHT22;44782;0.000;0.000;2023-05-25T04:45:32;18.40;53.40
58993;DHT22;44782;0.000;0.000;2023-05-25T04:47:48;18.40;53.40
58993;DHT22;44782;0.000;0.000;2023-05-25T04:50:04;18.40;53.30
58993;DHT22;44782;0.000;0.000;2023-05-25T04:52:20;18.40;53.30
58993;DHT22;44782;0.000;0.000;2023-05-25T04:54:35;18.40;53.30
58993;DHT22;44782;0.000;0.000;2023-05-25T04:56:51;18.40;53.40
58993;DHT22;44782;0.000;0.000;2023-05-25T04:59:07;18.40;53.40
58993;DHT22;44782;0.000;0.000;2023-05-25T05:01:23;18.40;53.40
58993;DHT22;44782;0.000;0.000;2023-05-25T05:03:40;18.40;53.40
58993;DHT22;44782;0.000;0.000;2023-05-25T05:05:56;18.40;53.40
58993;DHT22;44782;0.000;0.000;2023-05-25T05:08:11;18.40;53.30
58993;DHT22;44782;0.000;0.000;2023-05-25T05:10:27;18.40;53.30
58993;DHT22;44782;0.000;0.000;2023-05-25T05:12:43;18.40;53.40
58993;DHT22;44782;0.000;0.000;2023-05-25T05:14:59;18.40;53.40
58993;DHT22;44782;0.000;0.000;2023-05-25T05:17:14;18.30;53.30
58993;DHT22;44782;0.000;0.000;2023-05-25T05:19:31;18.40;53.40
58993;DHT22;44782;0.000;0.000;2023-05-25T05:21:47;18.40;53.40
58993;DHT22;44782;0.000;0.000;2023-05-25T05:24:03;18.40;53.40
58993;DHT22;44782;0.000;0.000;2023-05-25T05:26:19;18.40;53.40
58993;DHT22;44782;0.000;0.000;2023-05-25T05:28:36;18.40;53.40
58993;DHT22;44782;0.000;0.000;2023-05-25T05:30:52;18.40;53.40
58993;DHT22;44782;0.000;0.000;2023-05-25T05:33:08;18.40;53.30
58993;DHT22;44782;0.000;0.000;2023-05-25T05:35:23;18.40;53.40
58993;DHT22;44782;0.000;0.000;2023-05-25T05:37:39;18.40;53.30
58993;DHT22;44782;0.000;0.000;2023-05-25T05:39:55;18.40;53.40
58993;DHT22;44782;0.000;0.000;2023-05-25T05:42:11;18.40;53.40
58993;DHT22;44782;0.000;0.000;2023-05-25T05:44:26;18.30;53.30
58993;DHT22;44782;0.000;0.000;2023-05-25T05:46:42;18.30;53.60
58993;DHT22;44782;0.000;0.000;2023-05-25T05:48:58;18.30;53.30
58993;DHT22;44782;0.000;0.000;2023-05-25T05:51:13;18.30;53.30
58993;DHT22;44782;0.000;0.000;2023-05-25T05:53:29;18.30;53.30
58993;DHT22;44782;0.000;0.000;2023-05-25T05:55:45;18.30;53.30
58993;DHT22;44782;0.000;0.000;2023-05-25T05:58:01;18.30;53.30
58993;DHT22;44782;0.000;0.000;2023-05-25T06:00:16;18.30;53.30
58993;DHT22;44782;0.000;0.000;2023-05-25T06:02:32;18.30;53.30
58993;DHT22;44782;0.000;0.000;2023-05-25T06:04:48;18.30;53.30
58993;DHT22;44782;0.000;0.000;2023-05-25T06:07:04;18.30;53.30
58993;DHT22;44782;0.000;0.000;2023-05-25T06:09:20;18.30;53.30
58993;DHT22;44782;0.000;0.000;2023-05-25T06:11:36;18.30;53.30
58993;DHT22;44782;0.000;0.000;2023-05-25T06:13:54;18.30;53.30
58993;DHT22;44782;0.000;0.000;2023-05-25T06:16:10;18.30;53.30
58993;DHT22;44782;0.000;0.000;2023-05-25T06:18:26;18.30;53.30
58993;DHT22;44782;0.000;0.000;2023-05-25T06:20:42;18.30;53.30
58993;DHT22;44782;0.000;0.000;2023-05-25T06:22:58;18.30;53.30
58993;DHT22;44782;0.000;0.000;2023-05-25T06:25:14;18.30;53.30
58993;DHT22;44782;0.000;0.000;2023-05-25T06:27:30;18.30;53.30
58993;DHT22;44782;0.000;0.000;2023-05-25T06:29:45;18.30;53.30
58993;DHT22;44782;0.000;0.000;2023-05-25T06:32:01;18.30;53.30
58993;DHT22;44782;0.000;0.000;2023-05-25T06:34:17;18.30;53.30
58993;DHT22;44782;0.000;0.000;2023-05-25T06:36:32;18.30;53.30
58993;DHT22;44782;0.000;0.000;2023-05-25T06:38:48;18.30;53.30
58993;DHT22;44782;0.000;0.000;2023-05-25T06:41:04;18.20;53.30
58993;DHT22;44782;0.000;0.000;2023-05-25T06:43:21;18.30;53.30
58993;DHT22;44782;0.000;0.000;2023-05-25T06:45:37;18.20;53.30
58993;DHT22;44782;0.000;0.000;2023-05-25T06:47:53;18.20;53.30
58993;DHT22;44782;0.000;0.000;2023-05-25T06:50:09;18.20;53.30
58993;DHT22;44782;0.000;0.000;2023-05-25T06:52:25;18.20;53.30
58993;DHT22;44782;0.000;0.000;2023-05-25T06:54:44;18.20;53.30
58993;DHT22;44782;0.000;0.000;2023-05-25T06:56:59;18.20;53.30
58993;DHT22;44782;0.000;0.000;2023-05-25T06:59:15;18.20;53.30
58993;DHT22;44782;0.000;0.000;2023-05-25T07:01:32;18.20;53.30
58993;DHT22;44782;0.000;0.000;2023-05-25T07:03:48;18.20;53.30
58993;DHT22;44782;0.000;0.000;2023-05-25T07:06:05;18.20;54.00
58993;DHT22;44782;0.000;0.000;2023-05-25T07:08:20;18.20;53.30
58993;DHT22;44782;0.000;0.000;2023-05-25T07:10:36;18.20;53.30
58993;DHT22;44782;0.000;0.000;2023-05-25T07:12:52;18.20;53.30
58993;DHT22;44782;0.000;0.000;2023-05-25T07:15:08;18.20;53.30
58993;DHT22;44782;0.000;0.000;2023-05-25T07:17:24;18.20;53.30
58993;DHT22;44782;0.000;0.000;2023-05-25T07:19:40;18.20;53.40
58993;DHT22;44782;0.000;0.000;2023-05-25T07:21:57;18.20;53.30
58993;DHT22;44782;0.000;0.000;2023-05-25T07:24:13;18.20;53.30
58993;DHT22;44782;0.000;0.000;2023-05-25T07:26:32;18.20;53.30
58993;DHT22;44782;0.000;0.000;2023-05-25T07:29:19;18.20;53.30
58993;DHT22;44782;0.000;0.000;2023-05-25T07:31:35;18.20;53.20
58993;DHT22;44782;0.000;0.000;2023-05-25T07:33:51;18.10;53.30
58993;DHT22;44782;0.000;0.000;2023-05-25T07:36:08;18.20;53.40
58993;DHT22;44782;0.000;0.000;2023-05-25T07:38:24;18.20;53.30
58993;DHT22;44782;0.000;0.000;2023-05-25T07:40:40;18.20;53.30
58993;DHT22;44782;0.000;0.000;2023-05-25T07:42:56;18.20;53.30
58993;DHT22;44782;0.000;0.000;2023-05-25T07:45:12;18.20;53.30
58993;DHT22;44782;0.000;0.000;2023-05-25T07:47:28;18.20;53.30
58993;DHT22;44782;0.000;0.000;2023-05-25T07:49:43;18.20;53.30
58993;DHT22;44782;0.000;0.000;2023-05-25T07:51:59;18.10;53.20
58993;DHT22;44782;0.000;0.000;2023-05-25T07:54:18;18.20;53.40
58993;DHT22;44782;0.000;0.000;2023-05-25T07:56:33;18.10;53.30
58993;DHT22;44782;0.000;0.000;2023-05-25T07:58:49;18.20;53.30
58993;DHT22;44782;0.000;0.000;2023-05-25T08:01:05;18.20;53.40
58993;DHT22;44782;0.000;0.000;2023-05-25T08:03:21;18.20;53.50
58993;DHT22;44782;0.000;0.000;2023-05-25T08:05:37;18.20;53.50
58993;DHT22;44782;0.000;0.000;2023-05-25T08:07:54;18.30;53.60
58993;DHT22;44782;0.000;0.000;2023-05-25T08:10:10;18.30;53.70
58993;DHT22;44782;0.000;0.000;2023-05-25T08:12:26;18.30;53.70
58993;DHT22;44782;0.000;0.000;2023-05-25T08:14:43;18.30;53.70
58993;DHT22;44782;0.000;0.000;2023-05-25T08:17:00;18.30;53.70
58993;DHT22;44782;0.000;0.000;2023-05-25T08:19:17;18.30;53.80
58993;DHT22;44782;0.000;0.000;2023-05-25T08:21:33;18.30;54.00
58993;DHT22;44782;0.000;0.000;2023-05-25T08:23:49;18.30;54.00
58993;DHT22;44782;0.000;0.000;2023-05-25T08:26:05;18.30;54.10
58993;DHT22;44782;0.000;0.000;2023-05-25T08:28:21;18.30;54.10
58993;DHT22;44782;0.000;0.000;2023-05-25T08:30:37;18.30;54.30
58993;DHT22;44782;0.000;0.000;2023-05-25T08:32:53;18.30;54.20
58993;DHT22;44782;0.000;0.000;2023-05-25T08:35:08;18.30;54.20
58993;DHT22;44782;0.000;0.000;2023-05-25T08:37:24;18.30;54.10
58993;DHT22;44782;0.000;0.000;2023-05-25T08:39:40;18.30;54.20
58993;DHT22;44782;0.000;0.000;2023-05-25T08:41:56;18.40;54.20
58993;DHT22;44782;0.000;0.000;2023-05-25T08:44:12;18.40;54.20
58993;DHT22;44782;0.000;0.000;2023-05-25T08:46:30;18.40;54.30
58993;DHT22;44782;0.000;0.000;2023-05-25T08:48:47;18.40;54.20
58993;DHT22;44782;0.000;0.000;2023-05-25T08:51:05;18.40;54.20
58993;DHT22;44782;0.000;0.000;2023-05-25T08:53:22;18.40;54.10
58993;DHT22;44782;0.000;0.000;2023-05-25T08:55:38;18.40;54.10
58993;DHT22;44782;0.000;0.000;2023-05-25T08:57:58;18.40;54.10
58993;DHT22;44782;0.000;0.000;2023-05-25T09:00:20;18.40;54.10
58993;DHT22;44782;0.000;0.000;2023-05-25T09:05:22;18.40;54.00
58993;DHT22;44782;0.000;0.000;2023-05-25T09:07:41;18.40;54.00
58993;DHT22;44782;0.000;0.000;2023-05-25T09:09:57;18.40;54.10
58993;DHT22;44782;0.000;0.000;2023-05-25T09:12:16;18.40;54.00
58993;DHT22;44782;0.000;0.000;2023-05-25T09:14:34;18.40;53.90
58993;DHT22;44782;0.000;0.000;2023-05-25T09:16:52;18.50;53.90
58993;DHT22;44782;0.000;0.000;2023-05-25T09:19:08;18.50;54.10
58993;DHT22;44782;0.000;0.000;2023-05-25T09:21:25;18.40;53.90
58993;DHT22;44782;0.000;0.000;2023-05-25T09:23:41;18.50;53.80
58993;DHT22;44782;0.000;0.000;2023-05-25T09:25:57;18.40;53.80
58993;DHT22;44782;0.000;0.000;2023-05-25T09:28:12;18.50;53.70
58993;DHT22;44782;0.000;0.000;2023-05-25T09:30:28;18.50;53.80
58993;DHT22;44782;0.000;0.000;2023-05-25T09:32:47;18.50;53.70
58993;DHT22;44782;0.000;0.000;2023-05-25T09:35:12;18.50;53.70
58993;DHT22;44782;0.000;0.000;2023-05-25T09:37:28;18.50;53.60
58993;DHT22;44782;0.000;0.000;2023-05-25T09:39:44;18.50;53.60
58993;DHT22;44782;0.000;0.000;2023-05-25T09:42:00;18.50;53.60
58993;DHT22;44782;0.000;0.000;2023-05-25T09:44:16;18.50;53.60
58993;DHT22;44782;0.000;0.000;2023-05-25T09:46:32;18.50;53.50
58993;DHT22;44782;0.000;0.000;2023-05-25T09:48:51;18.50;53.40
58993;DHT22;44782;0.000;0.000;2023-05-25T09:51:07;18.50;53.50
58993;DHT22;44782;0.000;0.000;2023-05-25T09:53:25;18.50;53.40
58993;DHT22;44782;0.000;0.000;2023-05-25T09:55:40;18.50;53.40
58993;DHT22;44782;0.000;0.000;2023-05-25T09:57:56;18.50;53.30
58993;DHT22;44782;0.000;0.000;2023-05-25T10:00:12;18.50;53.40
58993;DHT22;44782;0.000;0.000;2023-05-25T10:02:29;18.50;53.40
58993;DHT22;44782;0.000;0.000;2023-05-25T10:04:45;18.50;53.40
58993;DHT22;44782;0.000;0.000;2023-05-25T10:07:03;18.50;53.40
58993;DHT22;44782;0.000;0.000;2023-05-25T10:09:19;18.50;53.40
58993;DHT22;44782;0.000;0.000;2023-05-25T10:11:37;18.50;53.40
58993;DHT22;44782;0.000;0.000;2023-05-25T10:13:54;18.50;53.50
58993;DHT22;44782;0.000;0.000;2023-05-25T10:16:14;18.50;53.60
58993;DHT22;44782;0.000;0.000;2023-05-25T10:18:35;18.50;53.50
58993;DHT22;44782;0.000;0.000;2023-05-25T10:21:02;18.50;53.70
58993;DHT22;44782;0.000;0.000;2023-05-25T10:23:19;18.50;53.60
58993;DHT22;44782;0.000;0.000;2023-05-25T10:25:43;18.50;53.70
58993;DHT22;44782;0.000;0.000;2023-05-25T10:28:02;18.50;54.10
58993;DHT22;44782;0.000;0.000;2023-05-25T10:30:17;18.50;54.30
58993;DHT22;44782;0.000;0.000;2023-05-25T10:32:37;18.50;54.20
58993;DHT22;44782;0.000;0.000;2023-05-25T10:34:55;18.60;54.60
58993;DHT22;44782;0.000;0.000;2023-05-25T10:37:13;18.60;54.30
58993;DHT22;44782;0.000;0.000;2023-05-25T10:39:31;18.60;54.30
58993;DHT22;44782;0.000;0.000;2023-05-25T10:41:47;18.60;54.40
58993;DHT22;44782;0.000;0.000;2023-05-25T10:44:04;18.60;54.30
58993;DHT22;44782;0.000;0.000;2023-05-25T10:46:20;18.70;54.20
58993;DHT22;44782;0.000;0.000;2023-05-25T10:48:37;18.70;54.00
58993;DHT22;44782;0.000;0.000;2023-05-25T10:50:53;18.80;54.00
58993;DHT22;44782;0.000;0.000;2023-05-25T10:53:12;18.70;54.50
58993;DHT22;44782;0.000;0.000;2023-05-25T10:58:12;18.70;53.60
58993;DHT22;44782;0.000;0.000;2023-05-25T11:00:30;18.70;53.80
58993;DHT22;44782;0.000;0.000;2023-05-25T11:02:52;18.70;53.80
58993;DHT22;44782;0.000;0.000;2023-05-25T11:08:01;18.70;53.40
58993;DHT22;44782;0.000;0.000;2023-05-25T11:15:43;18.70;53.40
58993;DHT22;44782;0.000;0.000;2023-05-25T11:18:00;18.70;53.60
58993;DHT22;44782;0.000;0.000;2023-05-25T11:20:21;18.70;53.50
58993;DHT22;44782;0.000;0.000;2023-05-25T11:22:40;18.70;53.40
58993;DHT22;44782;0.000;0.000;2023-05-25T11:24:58;18.70;53.40
58993;DHT22;44782;0.000;0.000;2023-05-25T11:27:30;18.70;53.40
58993;DHT22;44782;0.000;0.000;2023-05-25T11:29:49;18.70;53.20
58993;DHT22;44782;0.000;0.000;2023-05-25T11:32:11;18.70;53.20
58993;DHT22;44782;0.000;0.000;2023-05-25T11:34:29;18.70;53.10
58993;DHT22;44782;0.000;0.000;2023-05-25T11:36:46;18.70;53.20
58993;DHT22;44782;0.000;0.000;2023-05-25T11:39:05;18.70;53.10
58993;DHT22;44782;0.000;0.000;2023-05-25T11:41:21;18.70;53.00
58993;DHT22;44782;0.000;0.000;2023-05-25T11:43:38;18.70;53.10
58993;DHT22;44782;0.000;0.000;2023-05-25T11:45:54;18.70;53.10
58993;DHT22;44782;0.000;0.000;2023-05-25T11:48:14;18.80;53.00
58993;DHT22;44782;0.000;0.000;2023-05-25T11:50:30;18.80;52.90
58993;DHT22;44782;0.000;0.000;2023-05-25T11:52:46;18.80;53.00
58993;DHT22;44782;0.000;0.000;2023-05-25T11:55:10;18.80;52.90
58993;DHT22;44782;0.000;0.000;2023-05-25T11:57:25;18.80;52.60
58993;DHT22;44782;0.000;0.000;2023-05-25T11:59:53;18.80;52.90
58993;DHT22;44782;0.000;0.000;2023-05-25T12:02:09;18.80;52.70
58993;DHT22;44782;0.000;0.000;2023-05-25T12:04:25;18.80;52.80
58993;DHT22;44782;0.000;0.000;2023-05-25T12:06:41;18.80;52.70
58993;DHT22;44782;0.000;0.000;2023-05-25T12:08:57;18.80;52.70
58993;DHT22;44782;0.000;0.000;2023-05-25T12:11:12;18.80;52.60
58993;DHT22;44782;0.000;0.000;2023-05-25T12:13:29;18.80;52.60
58993;DHT22;44782;0.000;0.000;2023-05-25T12:15:45;18.80;52.60
58993;DHT22;44782;0.000;0.000;2023-05-25T12:18:01;18.80;52.60
58993;DHT22;44782;0.000;0.000;2023-05-25T12:20:17;18.80;52.50
58993;DHT22;44782;0.000;0.000;2023-05-25T12:22:33;18.80;52.40
58993;DHT22;44782;0.000;0.000;2023-05-25T12:24:49;18.80;52.40
58993;DHT22;44782;0.000;0.000;2023-05-25T12:27:16;18.80;52.40
58993;DHT22;44782;0.000;0.000;2023-05-25T12:29:31;18.80;52.00
58993;DHT22;44782;0.000;0.000;2023-05-25T12:31:47;18.80;52.30
58993;DHT22;44782;0.000;0.000;2023-05-25T12:34:03;18.80;52.20
58993;DHT22;44782;0.000;0.000;2023-05-25T12:36:55;18.80;52.20
58993;DHT22;44782;0.000;0.000;2023-05-25T12:39:12;18.80;51.70
58993;DHT22;44782;0.000;0.000;2023-05-25T12:41:27;18.80;52.10
58993;DHT22;44782;0.000;0.000;2023-05-25T12:43:43;18.80;52.10
58993;DHT22;44782;0.000;0.000;2023-05-25T12:45:59;18.90;52.20
58993;DHT22;44782;0.000;0.000;2023-05-25T12:48:15;18.90;52.10
58993;DHT22;44782;0.000;0.000;2023-05-25T12:50:30;18.90;52.10
58993;DHT22;44782;0.000;0.000;2023-05-25T12:52:47;18.90;52.10
58993;DHT22;44782;0.000;0.000;2023-05-25T12:57:37;18.90;51.70
58993;DHT22;44782;0.000;0.000;2023-05-25T12:59:55;18.80;52.10
58993;DHT22;44782;0.000;0.000;2023-05-25T13:02:12;18.90;52.00
58993;DHT22;44782;0.000;0.000;2023-05-25T13:04:27;18.90;52.10
58993;DHT22;44782;0.000;0.000;2023-05-25T13:06:43;18.90;52.10
58993;DHT22;44782;0.000;0.000;2023-05-25T13:08:59;18.90;52.00
58993;DHT22;44782;0.000;0.000;2023-05-25T13:11:14;18.90;52.00
58993;DHT22;44782;0.000;0.000;2023-05-25T13:13:30;18.90;51.90
58993;DHT22;44782;0.000;0.000;2023-05-25T13:15:46;18.90;51.90
58993;DHT22;44782;0.000;0.000;2023-05-25T13:18:02;18.90;51.90
58993;DHT22;44782;0.000;0.000;2023-05-25T13:20:21;18.90;51.80
58993;DHT22;44782;0.000;0.000;2023-05-25T13:22:37;18.90;51.80
58993;DHT22;44782;0.000;0.000;2023-05-25T13:24:53;18.90;51.70
58993;DHT22;44782;0.000;0.000;2023-05-25T13:27:08;19.00;51.80
58993;DHT22;44782;0.000;0.000;2023-05-25T13:29:24;19.00;51.70
58993;DHT22;44782;0.000;0.000;2023-05-25T13:31:40;19.00;51.70
58993;DHT22;44782;0.000;0.000;2023-05-25T13:33:57;19.00;51.70
58993;DHT22;44782;0.000;0.000;2023-05-25T13:36:13;19.00;51.70
58993;DHT22;44782;0.000;0.000;2023-05-25T13:38:29;19.00;51.70
58993;DHT22;44782;0.000;0.000;2023-05-25T13:40:45;19.00;51.70
58993;DHT22;44782;0.000;0.000;2023-05-25T13:43:01;19.00;51.70
58993;DHT22;44782;0.000;0.000;2023-05-25T13:45:17;19.00;51.70
58993;DHT22;44782;0.000;0.000;2023-05-25T13:47:33;19.00;51.70
58993;DHT22;44782;0.000;0.000;2023-05-25T13:49:49;19.00;51.60
58993;DHT22;44782;0.000;0.000;2023-05-25T13:52:05;19.00;51.60
58993;DHT22;44782;0.000;0.000;2023-05-25T13:54:20;19.00;51.70
58993;DHT22;44782;0.000;0.000;2023-05-25T13:56:38;19.00;51.70
58993;DHT22;44782;0.000;0.000;2023-05-25T13:58:53;19.00;51.60
58993;DHT22;44782;0.000;0.000;2023-05-25T14:01:09;19.10;51.60
58993;DHT22;44782;0.000;0.000;2023-05-25T14:03:25;19.00;51.50
58993;DHT22;44782;0.000;0.000;2023-05-25T14:05:41;19.10;51.60
58993;DHT22;44782;0.000;0.000;2023-05-25T14:07:57;19.10;51.60
58993;DHT22;44782;0.000;0.000;2023-05-25T14:10:15;19.10;51.60
58993;DHT22;44782;0.000;0.000;2023-05-25T14:12:30;19.10;51.60
58993;DHT22;44782;0.000;0.000;2023-05-25T14:14:46;19.10;51.60
58993;DHT22;44782;0.000;0.000;2023-05-25T14:17:02;19.10;51.70
58993;DHT22;44782;0.000;0.000;2023-05-25T14:19:17;19.10;51.70
58993;DHT22;44782;0.000;0.000;2023-05-25T14:21:36;19.10;51.80
58993;DHT22;44782;0.000;0.000;2023-05-25T14:23:51;19.20;51.80
58993;DHT22;44782;0.000;0.000;2023-05-25T14:26:07;19.10;51.80
58993;DHT22;44782;0.000;0.000;2023-05-25T14:28:23;19.10;51.90
58993;DHT22;44782;0.000;0.000;2023-05-25T14:30:38;19.10;51.90
58993;DHT22;44782;0.000;0.000;2023-05-25T14:32:54;19.20;51.90
58993;DHT22;44782;0.000;0.000;2023-05-25T14:35:10;19.20;51.90
58993;DHT22;44782;0.000;0.000;2023-05-25T14:37:25;19.20;51.90
58993;DHT22;44782;0.000;0.000;2023-05-25T14:39:41;19.20;51.90
58993;DHT22;44782;0.000;0.000;2023-05-25T14:41:57;19.20;51.90
58993;DHT22;44782;0.000;0.000;2023-05-25T14:44:12;19.30;52.10
58993;DHT22;44782;0.000;0.000;2023-05-25T14:46:31;19.20;52.00
58993;DHT22;44782;0.000;0.000;2023-05-25T14:48:47;19.20;52.00
58993;DHT22;44782;0.000;0.000;2023-05-25T14:51:02;19.30;52.10
58993;DHT22;44782;0.000;0.000;2023-05-25T14:53:18;19.30;52.10
58993;DHT22;44782;0.000;0.000;2023-05-25T14:55:34;19.30;52.10
58993;DHT22;44782;0.000;0.000;2023-05-25T14:57:50;19.40;52.10
58993;DHT22;44782;0.000;0.000;2023-05-25T15:00:06;19.30;52.20